sensor_id;sensor_type;location;lat;lon;timestamp;P1;durP1;ratioP1;P2;durP2;ratioP2
78844;SDS011;68195;50.854;2.860;2023-12-29T00:00:56;6.82;;;1.67;;
78844;SDS011;68195;50.854;2.860;2023-12-29T00:03:21;6.53;;;1.88;;
78844;SDS011;68195;50.854;2.860;2023-12-29T00:05:49;6.20;;;2.33;;
78844;SDS011;68195;50.854;2.860;2023-12-29T00:08:18;7.28;;;1.65;;
78844;SDS011;68195;50.854;2.860;2023-12-29T00:10:46;6.50;;;1.77;;
78844;SDS011;68195;50.854;2.860;2023-12-29T00:13:14;7.43;;;2.20;;
78844;SDS011;68195;50.854;2.860;2023-12-29T00:15:39;8.77;;;2.53;;
78844;SDS011;68195;50.854;2.860;2023-12-29T00:18:04;6.47;;;2.00;;
78844;SDS011;68195;50.854;2.860;2023-12-29T00:20:30;7.60;;;1.63;;
78844;SDS011;68195;50.854;2.860;2023-12-29T00:22:56;7.45;;;2.45;;
78844;SDS011;68195;50.854;2.860;2023-12-29T00:25:23;7.57;;;2.03;;
78844;SDS011;68195;50.854;2.860;2023-12-29T00:27:49;3.88;;;2.22;;
78844;SDS011;68195;50.854;2.860;2023-12-29T00:30:18;7.45;;;1.73;;
78844;SDS011;68195;50.854;2.860;2023-12-29T00:32:45;6.72;;;1.38;;
78844;SDS011;68195;50.854;2.860;2023-12-29T00:35:10;7.75;;;1.52;;
78844;SDS011;68195;50.854;2.860;2023-12-29T00:37:35;5.40;;;1.77;;
78844;SDS011;68195;50.854;2.860;2023-12-29T00:40:03;7.97;;;2.38;;
78844;SDS011;68195;50.854;2.860;2023-12-29T00:42:31;5.10;;;1.52;;
78844;SDS011;68195;50.854;2.860;2023-12-29T00:44:57;4.75;;;1.50;;
78844;SDS011;68195;50.854;2.860;2023-12-29T00:47:22;5.13;;;2.03;;
78844;SDS011;68195;50.854;2.860;2023-12-29T00:49:51;6.50;;;1.52;;
78844;SDS011;68195;50.854;2.860;2023-12-29T00:52:19;7.90;;;1.85;;
78844;SDS011;68195;50.854;2.860;2023-12-29T00:54:49;5.57;;;1.55;;
78844;SDS011;68195;50.854;2.860;2023-12-29T00:57:14;7.03;;;2.00;;
78844;SDS011;68195;50.854;2.860;2023-12-29T00:59:42;7.30;;;2.63;;
78844;SDS011;68195;50.854;2.860;2023-12-29T01:02:12;8.23;;;1.98;;
78844;SDS011;68195;50.854;2.860;2023-12-29T01:04:43;10.73;;;2.47;;
78844;SDS011;68195;50.854;2.860;2023-12-29T01:07:08;12.45;;;1.92;;
78844;SDS011;68195;50.854;2.860;2023-12-29T01:09:37;6.90;;;1.40;;
78844;SDS011;68195;50.854;2.860;2023-12-29T01:12:03;6.30;;;2.13;;
78844;SDS011;68195;50.854;2.860;2023-12-29T01:14:32;7.18;;;1.88;;
78844;SDS011;68195;50.854;2.860;2023-12-29T01:17:02;8.35;;;2.03;;
78844;SDS011;68195;50.854;2.860;2023-12-29T01:19:27;9.55;;;2.15;;
78844;SDS011;68195;50.854;2.860;2023-12-29T01:21:53;3.63;;;1.52;;
78844;SDS011;68195;50.854;2.860;2023-12-29T01:26:43;4.67;;;1.10;;
78844;SDS011;68195;50.854;2.860;2023-12-29T01:29:09;7.15;;;1.83;;
78844;SDS011;68195;50.854;2.860;2023-12-29T01:31:34;8.38;;;2.08;;
78844;SDS011;68195;50.854;2.860;2023-12-29T01:34:02;8.00;;;1.65;;
78844;SDS011;68195;50.854;2.860;2023-12-29T01:36:27;6.85;;;1.50;;
78844;SDS011;68195;50.854;2.860;2023-12-29T01:38:53;6.22;;;1.88;;
78844;SDS011;68195;50.854;2.860;2023-12-29T01:41:21;8.70;;;1.70;;
78844;SDS011;68195;50.854;2.860;2023-12-29T01:46:22;10.77;;;1.77;;
78844;SDS011;68195;50.854;2.860;2023-12-29T01:48:51;9.10;;;1.60;;
78844;SDS011;68195;50.854;2.860;2023-12-29T01:51:17;6.03;;;1.63;;
78844;SDS011;68195;50.854;2.860;2023-12-29T01:53:47;8.75;;;1.67;;
78844;SDS011;68195;50.854;2.860;2023-12-29T01:56:13;8.27;;;1.88;;
78844;SDS011;68195;50.854;2.860;2023-12-29T01:58:44;9.52;;;1.70;;
78844;SDS011;68195;50.854;2.860;2023-12-29T02:01:15;11.32;;;1.90;;
78844;SDS011;68195;50.854;2.860;2023-12-29T02:03:45;7.15;;;2.35;;
78844;SDS011;68195;50.854;2.860;2023-12-29T02:06:10;7.65;;;2.28;;
78844;SDS011;68195;50.854;2.860;2023-12-29T02:08:37;6.82;;;2.25;;
78844;SDS011;68195;50.854;2.860;2023-12-29T02:11:04;9.38;;;1.70;;
78844;SDS011;68195;50.854;2.860;2023-12-29T02:13:32;5.03;;;1.67;;
78844;SDS011;68195;50.854;2.860;2023-12-29T02:15:58;6.22;;;1.75;;
78844;SDS011;68195;50.854;2.860;2023-12-29T02:18:30;10.10;;;2.10;;
78844;SDS011;68195;50.854;2.860;2023-12-29T02:20:59;8.13;;;1.70;;
78844;SDS011;68195;50.854;2.860;2023-12-29T02:23:27;5.20;;;2.05;;
78844;SDS011;68195;50.854;2.860;2023-12-29T02:25:58;11.20;;;2.35;;
78844;SDS011;68195;50.854;2.860;2023-12-29T02:28:32;7.50;;;2.17;;
78844;SDS011;68195;50.854;2.860;2023-12-29T02:31:17;9.82;;;3.17;;
78844;SDS011;68195;50.854;2.860;2023-12-29T02:33:45;8.80;;;2.33;;
78844;SDS011;68195;50.854;2.860;2023-12-29T02:36:15;7.70;;;2.30;;
78844;SDS011;68195;50.854;2.860;2023-12-29T02:38:42;5.95;;;1.98;;
78844;SDS011;68195;50.854;2.860;2023-12-29T02:41:10;8.23;;;1.90;;
78844;SDS011;68195;50.854;2.860;2023-12-29T02:43:38;10.55;;;1.80;;
78844;SDS011;68195;50.854;2.860;2023-12-29T02:46:09;10.13;;;2.15;;
78844;SDS011;68195;50.854;2.860;2023-12-29T02:48:34;8.10;;;1.98;;
78844;SDS011;68195;50.854;2.860;2023-12-29T02:51:00;9.57;;;2.13;;
78844;SDS011;68195;50.854;2.860;2023-12-29T02:53:25;9.32;;;1.70;;
78844;SDS011;68195;50.854;2.860;2023-12-29T02:55:50;8.00;;;2.47;;
78844;SDS011;68195;50.854;2.860;2023-12-29T02:58:16;9.38;;;2.47;;
78844;SDS011;68195;50.854;2.860;2023-12-29T03:00:41;4.88;;;1.65;;
78844;SDS011;68195;50.854;2.860;2023-12-29T03:03:07;6.18;;;1.70;;
78844;SDS011;68195;50.854;2.860;2023-12-29T03:05:32;9.52;;;2.22;;
78844;SDS011;68195;50.854;2.860;2023-12-29T03:08:00;7.25;;;1.70;;
78844;SDS011;68195;50.854;2.860;2023-12-29T03:10:28;4.68;;;1.48;;
78844;SDS011;68195;50.854;2.860;2023-12-29T03:12:53;9.30;;;1.83;;
78844;SDS011;68195;50.854;2.860;2023-12-29T03:15:21;6.68;;;2.10;;
78844;SDS011;68195;50.854;2.860;2023-12-29T03:17:46;5.10;;;1.85;;
78844;SDS011;68195;50.854;2.860;2023-12-29T03:20:14;11.20;;;2.38;;
78844;SDS011;68195;50.854;2.860;2023-12-29T03:22:39;8.57;;;2.47;;
78844;SDS011;68195;50.854;2.860;2023-12-29T03:25:05;5.47;;;1.88;;
78844;SDS011;68195;50.854;2.860;2023-12-29T03:27:30;9.10;;;2.22;;
78844;SDS011;68195;50.854;2.860;2023-12-29T03:29:56;7.03;;;1.55;;
78844;SDS011;68195;50.854;2.860;2023-12-29T03:32:21;9.18;;;1.83;;
78844;SDS011;68195;50.854;2.860;2023-12-29T03:34:47;8.55;;;1.70;;
78844;SDS011;68195;50.854;2.860;2023-12-29T03:37:12;7.38;;;2.17;;
78844;SDS011;68195;50.854;2.860;2023-12-29T03:39:37;9.70;;;2.58;;
78844;SDS011;68195;50.854;2.860;2023-12-29T03:42:03;8.15;;;2.05;;
78844;SDS011;68195;50.854;2.860;2023-12-29T03:44:31;7.32;;;1.70;;
78844;SDS011;68195;50.854;2.860;2023-12-29T03:46:57;5.82;;;1.38;;
78844;SDS011;68195;50.854;2.860;2023-12-29T03:49:22;9.02;;;1.55;;
78844;SDS011;68195;50.854;2.860;2023-12-29T03:51:51;3.83;;;1.38;;
78844;SDS011;68195;50.854;2.860;2023-12-29T03:54:16;11.02;;;2.25;;
78844;SDS011;68195;50.854;2.860;2023-12-29T03:56:43;9.05;;;2.58;;
78844;SDS011;68195;50.854;2.860;2023-12-29T03:59:08;3.97;;;1.00;;
78844;SDS011;68195;50.854;2.860;2023-12-29T04:01:36;8.05;;;1.60;;
78844;SDS011;68195;50.854;2.860;2023-12-29T04:04:02;7.55;;;1.60;;
78844;SDS011;68195;50.854;2.860;2023-12-29T04:06:27;5.03;;;1.27;;
78844;SDS011;68195;50.854;2.860;2023-12-29T04:08:56;7.28;;;1.70;;
78844;SDS011;68195;50.854;2.860;2023-12-29T04:11:21;8.85;;;2.65;;
78844;SDS011;68195;50.854;2.860;2023-12-29T04:13:47;6.70;;;1.60;;
78844;SDS011;68195;50.854;2.860;2023-12-29T04:16:12;8.75;;;1.58;;
78844;SDS011;68195;50.854;2.860;2023-12-29T04:18:38;3.95;;;1.55;;
78844;SDS011;68195;50.854;2.860;2023-12-29T04:21:03;6.65;;;1.95;;
78844;SDS011;68195;50.854;2.860;2023-12-29T04:23:34;4.88;;;1.30;;
78844;SDS011;68195;50.854;2.860;2023-12-29T04:25:59;5.28;;;1.30;;
78844;SDS011;68195;50.854;2.860;2023-12-29T04:28:24;5.45;;;1.52;;
78844;SDS011;68195;50.854;2.860;2023-12-29T04:30:50;7.15;;;2.75;;
78844;SDS011;68195;50.854;2.860;2023-12-29T04:33:15;10.25;;;1.55;;
78844;SDS011;68195;50.854;2.860;2023-12-29T04:35:40;5.90;;;1.50;;
78844;SDS011;68195;50.854;2.860;2023-12-29T04:38:06;6.53;;;1.58;;
78844;SDS011;68195;50.854;2.860;2023-12-29T04:40:31;6.53;;;1.83;;
78844;SDS011;68195;50.854;2.860;2023-12-29T04:42:57;4.55;;;1.50;;
78844;SDS011;68195;50.854;2.860;2023-12-29T04:45:22;4.50;;;1.38;;
78844;SDS011;68195;50.854;2.860;2023-12-29T04:47:48;8.48;;;1.40;;
78844;SDS011;68195;50.854;2.860;2023-12-29T04:50:13;4.00;;;1.38;;
78844;SDS011;68195;50.854;2.860;2023-12-29T04:52:38;5.88;;;2.28;;
78844;SDS011;68195;50.854;2.860;2023-12-29T04:55:04;3.60;;;1.30;;
78844;SDS011;68195;50.854;2.860;2023-12-29T04:57:29;5.85;;;1.90;;
78844;SDS011;68195;50.854;2.860;2023-12-29T04:59:57;4.43;;;1.27;;
78844;SDS011;68195;50.854;2.860;2023-12-29T05:02:23;4.88;;;1.90;;
78844;SDS011;68195;50.854;2.860;2023-12-29T05:04:48;6.30;;;1.83;;
78844;SDS011;68195;50.854;2.860;2023-12-29T05:07:13;4.43;;;1.55;;
78844;SDS011;68195;50.854;2.860;2023-12-29T05:09:39;3.92;;;1.75;;
78844;SDS011;68195;50.854;2.860;2023-12-29T05:12:07;4.60;;;1.42;;
78844;SDS011;68195;50.854;2.860;2023-12-29T05:14:32;4.88;;;1.75;;
78844;SDS011;68195;50.854;2.860;2023-12-29T05:16:57;5.63;;;1.75;;
78844;SDS011;68195;50.854;2.860;2023-12-29T05:19:25;6.10;;;1.60;;
78844;SDS011;68195;50.854;2.860;2023-12-29T05:21:51;6.28;;;1.58;;
78844;SDS011;68195;50.854;2.860;2023-12-29T05:24:17;3.92;;;1.20;;
78844;SDS011;68195;50.854;2.860;2023-12-29T05:26:42;5.82;;;1.75;;
78844;SDS011;68195;50.854;2.860;2023-12-29T05:29:10;2.58;;;1.42;;
78844;SDS011;68195;50.854;2.860;2023-12-29T05:31:38;3.88;;;1.20;;
78844;SDS011;68195;50.854;2.860;2023-12-29T05:34:06;4.25;;;1.63;;
78844;SDS011;68195;50.854;2.860;2023-12-29T05:36:34;4.93;;;2.40;;
78844;SDS011;68195;50.854;2.860;2023-12-29T05:39:00;7.47;;;1.98;;
78844;SDS011;68195;50.854;2.860;2023-12-29T05:41:28;7.60;;;2.40;;
78844;SDS011;68195;50.854;2.860;2023-12-29T05:43:54;3.42;;;2.13;;
78844;SDS011;68195;50.854;2.860;2023-12-29T05:46:19;3.28;;;1.60;;
78844;SDS011;68195;50.854;2.860;2023-12-29T05:48:46;5.15;;;1.77;;
78844;SDS011;68195;50.854;2.860;2023-12-29T05:51:12;4.03;;;1.60;;
78844;SDS011;68195;50.854;2.860;2023-12-29T05:53:42;3.85;;;1.48;;
78844;SDS011;68195;50.854;2.860;2023-12-29T05:56:10;3.40;;;1.58;;
78844;SDS011;68195;50.854;2.860;2023-12-29T05:58:37;3.50;;;1.40;;
78844;SDS011;68195;50.854;2.860;2023-12-29T06:01:02;5.50;;;1.63;;
78844;SDS011;68195;50.854;2.860;2023-12-29T06:03:28;2.67;;;1.50;;
78844;SDS011;68195;50.854;2.860;2023-12-29T06:05:54;4.05;;;1.80;;
78844;SDS011;68195;50.854;2.860;2023-12-29T06:08:22;3.42;;;1.40;;
78844;SDS011;68195;50.854;2.860;2023-12-29T06:10:47;3.75;;;1.30;;
78844;SDS011;68195;50.854;2.860;2023-12-29T06:13:13;5.43;;;1.63;;
78844;SDS011;68195;50.854;2.860;2023-12-29T06:15:38;4.53;;;1.80;;
78844;SDS011;68195;50.854;2.860;2023-12-29T06:18:04;2.40;;;1.75;;
78844;SDS011;68195;50.854;2.860;2023-12-29T06:20:34;5.13;;;1.63;;
78844;SDS011;68195;50.854;2.860;2023-12-29T06:22:59;5.05;;;1.48;;
78844;SDS011;68195;50.854;2.860;2023-12-29T06:25:25;4.60;;;1.55;;
78844;SDS011;68195;50.854;2.860;2023-12-29T06:27:51;2.75;;;1.10;;
78844;SDS011;68195;50.854;2.860;2023-12-29T06:30:16;2.28;;;1.10;;
78844;SDS011;68195;50.854;2.860;2023-12-29T06:32:47;5.07;;;2.10;;
78844;SDS011;68195;50.854;2.860;2023-12-29T06:35:17;2.13;;;1.00;;
78844;SDS011;68195;50.854;2.860;2023-12-29T06:37:47;3.30;;;1.27;;
78844;SDS011;68195;50.854;2.860;2023-12-29T06:40:15;2.85;;;1.20;;
78844;SDS011;68195;50.854;2.860;2023-12-29T06:42:41;2.55;;;0.90;;
78844;SDS011;68195;50.854;2.860;2023-12-29T06:45:10;2.65;;;0.63;;
78844;SDS011;68195;50.854;2.860;2023-12-29T06:47:40;2.38;;;0.93;;
78844;SDS011;68195;50.854;2.860;2023-12-29T06:50:08;2.67;;;0.60;;
78844;SDS011;68195;50.854;2.860;2023-12-29T06:52:37;1.95;;;0.50;;
78844;SDS011;68195;50.854;2.860;2023-12-29T06:55:05;1.30;;;0.50;;
78844;SDS011;68195;50.854;2.860;2023-12-29T06:59:58;1.27;;;0.60;;
78844;SDS011;68195;50.854;2.860;2023-12-29T07:02:26;0.80;;;0.35;;
78844;SDS011;68195;50.854;2.860;2023-12-29T07:04:51;3.90;;;0.47;;
78844;SDS011;68195;50.854;2.860;2023-12-29T07:07:19;2.63;;;0.63;;
78844;SDS011;68195;50.854;2.860;2023-12-29T07:09:47;3.17;;;0.50;;
78844;SDS011;68195;50.854;2.860;2023-12-29T07:12:12;1.45;;;0.43;;
78844;SDS011;68195;50.854;2.860;2023-12-29T07:14:38;1.27;;;0.28;;
78844;SDS011;68195;50.854;2.860;2023-12-29T07:17:05;2.47;;;0.43;;
78844;SDS011;68195;50.854;2.860;2023-12-29T07:19:31;2.05;;;0.47;;
78844;SDS011;68195;50.854;2.860;2023-12-29T07:22:12;3.08;;;0.73;;
78844;SDS011;68195;50.854;2.860;2023-12-29T07:24:53;1.88;;;0.45;;
78844;SDS011;68195;50.854;2.860;2023-12-29T07:27:38;1.80;;;0.45;;
78844;SDS011;68195;50.854;2.860;2023-12-29T07:30:03;1.08;;;0.75;;
78844;SDS011;68195;50.854;2.860;2023-12-29T07:32:29;3.50;;;0.80;;
78844;SDS011;68195;50.854;2.860;2023-12-29T07:34:55;0.98;;;0.70;;
78844;SDS011;68195;50.854;2.860;2023-12-29T07:37:21;2.60;;;0.40;;
78844;SDS011;68195;50.854;2.860;2023-12-29T07:39:49;2.75;;;0.70;;
78844;SDS011;68195;50.854;2.860;2023-12-29T07:42:17;1.95;;;0.95;;
78844;SDS011;68195;50.854;2.860;2023-12-29T07:44:44;2.40;;;0.63;;
78844;SDS011;68195;50.854;2.860;2023-12-29T07:47:15;1.88;;;0.73;;
78844;SDS011;68195;50.854;2.860;2023-12-29T07:49:41;1.27;;;0.57;;
78844;SDS011;68195;50.854;2.860;2023-12-29T07:54:32;2.10;;;0.70;;
78844;SDS011;68195;50.854;2.860;2023-12-29T07:56:58;1.65;;;0.85;;
78844;SDS011;68195;50.854;2.860;2023-12-29T07:59:23;2.60;;;0.57;;
78844;SDS011;68195;50.854;2.860;2023-12-29T08:01:51;1.23;;;0.63;;
78844;SDS011;68195;50.854;2.860;2023-12-29T08:04:19;2.83;;;0.73;;
78844;SDS011;68195;50.854;2.860;2023-12-29T08:06:47;1.00;;;0.47;;
78844;SDS011;68195;50.854;2.860;2023-12-29T08:09:15;2.00;;;0.20;;
78844;SDS011;68195;50.854;2.860;2023-12-29T08:11:40;1.90;;;0.60;;
78844;SDS011;68195;50.854;2.860;2023-12-29T08:14:08;0.30;;;0.30;;
78844;SDS011;68195;50.854;2.860;2023-12-29T08:16:39;1.17;;;0.43;;
78844;SDS011;68195;50.854;2.860;2023-12-29T08:19:05;1.67;;;0.80;;
78844;SDS011;68195;50.854;2.860;2023-12-29T08:21:35;2.58;;;0.93;;
78844;SDS011;68195;50.854;2.860;2023-12-29T08:24:00;2.00;;;0.88;;
78844;SDS011;68195;50.854;2.860;2023-12-29T08:26:26;2.70;;;0.50;;
78844;SDS011;68195;50.854;2.860;2023-12-29T08:28:51;1.65;;;0.57;;
78844;SDS011;68195;50.854;2.860;2023-12-29T08:31:18;3.65;;;0.80;;
78844;SDS011;68195;50.854;2.860;2023-12-29T08:33:44;3.72;;;0.65;;
78844;SDS011;68195;50.854;2.860;2023-12-29T08:36:10;2.25;;;0.60;;
78844;SDS011;68195;50.854;2.860;2023-12-29T08:38:38;0.65;;;0.45;;
78844;SDS011;68195;50.854;2.860;2023-12-29T08:41:06;1.25;;;0.75;;
78844;SDS011;68195;50.854;2.860;2023-12-29T08:43:34;1.42;;;0.60;;
78844;SDS011;68195;50.854;2.860;2023-12-29T08:46:02;1.98;;;0.70;;
78844;SDS011;68195;50.854;2.860;2023-12-29T08:48:27;1.38;;;0.60;;
78844;SDS011;68195;50.854;2.860;2023-12-29T08:50:53;3.28;;;1.00;;
78844;SDS011;68195;50.854;2.860;2023-12-29T08:53:18;2.15;;;0.98;;
78844;SDS011;68195;50.854;2.860;2023-12-29T08:55:46;0.90;;;0.45;;
78844;SDS011;68195;50.854;2.860;2023-12-29T08:58:14;2.55;;;0.70;;
78844;SDS011;68195;50.854;2.860;2023-12-29T09:00:42;5.05;;;0.85;;
78844;SDS011;68195;50.854;2.860;2023-12-29T09:03:10;2.10;;;0.60;;
78844;SDS011;68195;50.854;2.860;2023-12-29T09:05:35;3.35;;;0.98;;
78844;SDS011;68195;50.854;2.860;2023-12-29T09:08:04;2.35;;;1.13;;
78844;SDS011;68195;50.854;2.860;2023-12-29T09:10:30;4.47;;;0.75;;
78844;SDS011;68195;50.854;2.860;2023-12-29T09:12:55;3.70;;;0.95;;
78844;SDS011;68195;50.854;2.860;2023-12-29T09:15:23;2.80;;;1.00;;
78844;SDS011;68195;50.854;2.860;2023-12-29T09:17:53;2.55;;;0.70;;
78844;SDS011;68195;50.854;2.860;2023-12-29T09:20:21;2.25;;;0.75;;
78844;SDS011;68195;50.854;2.860;2023-12-29T09:22:47;2.45;;;0.90;;
78844;SDS011;68195;50.854;2.860;2023-12-29T09:25:12;4.45;;;1.27;;
78844;SDS011;68195;50.854;2.860;2023-12-29T09:27:40;4.28;;;1.45;;
78844;SDS011;68195;50.854;2.860;2023-12-29T09:30:06;5.35;;;1.40;;
78844;SDS011;68195;50.854;2.860;2023-12-29T09:34:57;3.50;;;1.40;;
78844;SDS011;68195;50.854;2.860;2023-12-29T09:37:23;6.15;;;1.65;;
78844;SDS011;68195;50.854;2.860;2023-12-29T09:39:50;8.13;;;1.95;;
78844;SDS011;68195;50.854;2.860;2023-12-29T09:42:19;7.05;;;1.80;;
78844;SDS011;68195;50.854;2.860;2023-12-29T09:44:50;8.10;;;1.83;;
78844;SDS011;68195;50.854;2.860;2023-12-29T09:47:18;7.95;;;1.95;;
78844;SDS011;68195;50.854;2.860;2023-12-29T09:49:48;11.25;;;1.90;;
78844;SDS011;68195;50.854;2.860;2023-12-29T09:52:16;10.23;;;1.88;;
78844;SDS011;68195;50.854;2.860;2023-12-29T09:54:47;8.80;;;1.70;;
78844;SDS011;68195;50.854;2.860;2023-12-29T09:57:14;8.82;;;1.73;;
78844;SDS011;68195;50.854;2.860;2023-12-29T09:59:41;4.60;;;1.80;;
78844;SDS011;68195;50.854;2.860;2023-12-29T10:02:12;6.97;;;1.75;;
78844;SDS011;68195;50.854;2.860;2023-12-29T10:04:40;10.43;;;2.08;;
78844;SDS011;68195;50.854;2.860;2023-12-29T10:07:06;7.75;;;1.85;;
78844;SDS011;68195;50.854;2.860;2023-12-29T10:09:34;6.30;;;1.98;;
78844;SDS011;68195;50.854;2.860;2023-12-29T10:12:03;10.80;;;1.50;;
78844;SDS011;68195;50.854;2.860;2023-12-29T10:14:51;6.07;;;1.60;;
78844;SDS011;68195;50.854;2.860;2023-12-29T10:20:33;10.23;;;1.98;;
78844;SDS011;68195;50.854;2.860;2023-12-29T10:23:13;9.38;;;1.70;;
78844;SDS011;68195;50.854;2.860;2023-12-29T10:25:58;4.57;;;1.38;;
78844;SDS011;68195;50.854;2.860;2023-12-29T10:28:23;10.88;;;2.33;;
78844;SDS011;68195;50.854;2.860;2023-12-29T10:30:49;9.50;;;1.80;;
78844;SDS011;68195;50.854;2.860;2023-12-29T10:33:23;5.20;;;1.55;;
78844;SDS011;68195;50.854;2.860;2023-12-29T10:35:56;10.63;;;1.77;;
78844;SDS011;68195;50.854;2.860;2023-12-29T10:38:28;5.05;;;1.90;;
78844;SDS011;68195;50.854;2.860;2023-12-29T10:43:23;4.60;;;1.10;;
78844;SDS011;68195;50.854;2.860;2023-12-29T10:46:05;4.07;;;1.42;;
78844;SDS011;68195;50.854;2.860;2023-12-29T10:48:34;8.05;;;1.55;;
78844;SDS011;68195;50.854;2.860;2023-12-29T10:51:07;5.40;;;1.25;;
78844;SDS011;68195;50.854;2.860;2023-12-29T10:53:35;4.03;;;1.35;;
78844;SDS011;68195;50.854;2.860;2023-12-29T10:56:03;5.25;;;1.00;;
78844;SDS011;68195;50.854;2.860;2023-12-29T10:58:29;4.90;;;1.58;;
78844;SDS011;68195;50.854;2.860;2023-12-29T11:00:58;4.22;;;1.23;;
78844;SDS011;68195;50.854;2.860;2023-12-29T11:03:25;5.60;;;1.50;;
78844;SDS011;68195;50.854;2.860;2023-12-29T11:05:51;3.08;;;0.68;;
78844;SDS011;68195;50.854;2.860;2023-12-29T11:08:27;2.30;;;0.90;;
78844;SDS011;68195;50.854;2.860;2023-12-29T11:10:52;3.92;;;0.80;;
78844;SDS011;68195;50.854;2.860;2023-12-29T11:13:19;3.33;;;1.00;;
78844;SDS011;68195;50.854;2.860;2023-12-29T11:15:47;2.75;;;0.80;;
78844;SDS011;68195;50.854;2.860;2023-12-29T11:18:14;2.75;;;0.60;;
78844;SDS011;68195;50.854;2.860;2023-12-29T11:20:41;3.83;;;0.95;;
78844;SDS011;68195;50.854;2.860;2023-12-29T11:23:10;1.60;;;0.57;;
78844;SDS011;68195;50.854;2.860;2023-12-29T11:25:43;1.80;;;0.63;;
78844;SDS011;68195;50.854;2.860;2023-12-29T11:28:13;4.57;;;0.90;;
78844;SDS011;68195;50.854;2.860;2023-12-29T11:30:39;4.32;;;1.17;;
78844;SDS011;68195;50.854;2.860;2023-12-29T11:44:00;1.50;;;0.30;;
78844;SDS011;68195;50.854;2.860;2023-12-29T11:49:05;1.65;;;0.40;;
78844;SDS011;68195;50.854;2.860;2023-12-29T11:51:35;0.63;;;0.25;;
78844;SDS011;68195;50.854;2.860;2023-12-29T11:54:10;0.82;;;0.60;;
78844;SDS011;68195;50.854;2.860;2023-12-29T11:56:47;1.60;;;0.57;;
78844;SDS011;68195;50.854;2.860;2023-12-29T12:01:55;2.05;;;0.52;;
78844;SDS011;68195;50.854;2.860;2023-12-29T12:07:01;2.17;;;1.00;;
78844;SDS011;68195;50.854;2.860;2023-12-29T12:09:26;3.67;;;0.90;;
78844;SDS011;68195;50.854;2.860;2023-12-29T12:11:52;3.20;;;0.77;;
78844;SDS011;68195;50.854;2.860;2023-12-29T12:17:36;1.80;;;0.55;;
78844;SDS011;68195;50.854;2.860;2023-12-29T12:22:36;1.48;;;0.82;;
78844;SDS011;68195;50.854;2.860;2023-12-29T12:25:02;1.98;;;0.90;;
78844;SDS011;68195;50.854;2.860;2023-12-29T12:27:31;1.35;;;0.98;;
78844;SDS011;68195;50.854;2.860;2023-12-29T12:29:59;4.13;;;1.25;;
78844;SDS011;68195;50.854;2.860;2023-12-29T12:32:26;4.07;;;1.05;;
78844;SDS011;68195;50.854;2.860;2023-12-29T12:34:55;2.13;;;0.70;;
78844;SDS011;68195;50.854;2.860;2023-12-29T12:37:25;2.17;;;1.02;;
78844;SDS011;68195;50.854;2.860;2023-12-29T12:39:54;2.00;;;0.80;;
78844;SDS011;68195;50.854;2.860;2023-12-29T12:42:25;4.95;;;1.13;;
78844;SDS011;68195;50.854;2.860;2023-12-29T12:45:04;4.88;;;1.10;;
78844;SDS011;68195;50.854;2.860;2023-12-29T12:47:43;4.05;;;1.13;;
78844;SDS011;68195;50.854;2.860;2023-12-29T12:50:13;3.92;;;0.95;;
78844;SDS011;68195;50.854;2.860;2023-12-29T12:52:44;3.67;;;1.52;;
78844;SDS011;68195;50.854;2.860;2023-12-29T12:55:10;1.75;;;0.85;;
78844;SDS011;68195;50.854;2.860;2023-12-29T13:00:02;1.85;;;0.73;;
78844;SDS011;68195;50.854;2.860;2023-12-29T13:02:30;3.25;;;1.17;;
78844;SDS011;68195;50.854;2.860;2023-12-29T13:05:01;1.75;;;1.00;;
78844;SDS011;68195;50.854;2.860;2023-12-29T13:07:33;4.40;;;1.60;;
78844;SDS011;68195;50.854;2.860;2023-12-29T13:10:01;7.00;;;1.48;;
78844;SDS011;68195;50.854;2.860;2023-12-29T13:12:30;3.13;;;1.00;;
78844;SDS011;68195;50.854;2.860;2023-12-29T13:15:05;3.78;;;1.33;;
78844;SDS011;68195;50.854;2.860;2023-12-29T13:17:35;2.75;;;1.30;;
78844;SDS011;68195;50.854;2.860;2023-12-29T13:20:02;3.40;;;1.13;;
78844;SDS011;68195;50.854;2.860;2023-12-29T13:22:29;3.25;;;0.90;;
78844;SDS011;68195;50.854;2.860;2023-12-29T13:24:57;7.18;;;1.42;;
78844;SDS011;68195;50.854;2.860;2023-12-29T13:29:51;4.10;;;1.05;;
78844;SDS011;68195;50.854;2.860;2023-12-29T13:32:18;2.30;;;1.08;;
78844;SDS011;68195;50.854;2.860;2023-12-29T13:38:11;7.75;;;1.42;;
78844;SDS011;68195;50.854;2.860;2023-12-29T13:40:28;5.10;;;1.25;;
78844;SDS011;68195;50.854;2.860;2023-12-29T13:43:04;5.28;;;1.98;;
78844;SDS011;68195;50.854;2.860;2023-12-29T13:45:33;4.65;;;1.25;;
78844;SDS011;68195;50.854;2.860;2023-12-29T13:48:00;5.55;;;1.58;;
78844;SDS011;68195;50.854;2.860;2023-12-29T13:50:26;5.82;;;1.33;;
78844;SDS011;68195;50.854;2.860;2023-12-29T13:52:57;4.93;;;1.90;;
78844;SDS011;68195;50.854;2.860;2023-12-29T13:55:23;7.30;;;1.50;;
78844;SDS011;68195;50.854;2.860;2023-12-29T13:57:50;8.07;;;1.48;;
78844;SDS011;68195;50.854;2.860;2023-12-29T14:00:21;8.50;;;2.15;;
78844;SDS011;68195;50.854;2.860;2023-12-29T14:08:18;6.70;;;1.70;;
78844;SDS011;68195;50.854;2.860;2023-12-29T14:10:50;14.50;;;2.28;;
78844;SDS011;68195;50.854;2.860;2023-12-29T14:13:15;10.82;;;2.00;;
78844;SDS011;68195;50.854;2.860;2023-12-29T14:15:43;7.78;;;1.67;;
78844;SDS011;68195;50.854;2.860;2023-12-29T14:20:40;6.50;;;1.83;;
78844;SDS011;68195;50.854;2.860;2023-12-29T14:23:06;5.85;;;2.28;;
78844;SDS011;68195;50.854;2.860;2023-12-29T14:25:35;11.25;;;1.73;;
78844;SDS011;68195;50.854;2.860;2023-12-29T14:28:02;12.32;;;2.13;;
78844;SDS011;68195;50.854;2.860;2023-12-29T14:30:31;8.32;;;1.60;;
78844;SDS011;68195;50.854;2.860;2023-12-29T14:32:58;10.52;;;2.53;;
78844;SDS011;68195;50.854;2.860;2023-12-29T14:35:26;7.88;;;2.38;;
78844;SDS011;68195;50.854;2.860;2023-12-29T14:37:52;7.45;;;1.52;;
78844;SDS011;68195;50.854;2.860;2023-12-29T14:40:17;7.10;;;1.65;;
78844;SDS011;68195;50.854;2.860;2023-12-29T14:42:43;8.88;;;1.83;;
78844;SDS011;68195;50.854;2.860;2023-12-29T14:45:10;8.60;;;2.17;;
78844;SDS011;68195;50.854;2.860;2023-12-29T14:47:36;7.95;;;2.00;;
78844;SDS011;68195;50.854;2.860;2023-12-29T14:50:01;10.57;;;1.80;;
78844;SDS011;68195;50.854;2.860;2023-12-29T14:52:29;9.55;;;1.70;;
78844;SDS011;68195;50.854;2.860;2023-12-29T14:54:55;10.73;;;2.20;;
78844;SDS011;68195;50.854;2.860;2023-12-29T14:57:22;8.50;;;2.03;;
78844;SDS011;68195;50.854;2.860;2023-12-29T14:59:48;6.07;;;1.60;;
78844;SDS011;68195;50.854;2.860;2023-12-29T15:02:17;9.70;;;2.08;;
78844;SDS011;68195;50.854;2.860;2023-12-29T15:04:42;10.90;;;1.75;;
78844;SDS011;68195;50.854;2.860;2023-12-29T15:07:08;7.20;;;1.58;;
78844;SDS011;68195;50.854;2.860;2023-12-29T15:09:35;7.88;;;1.73;;
78844;SDS011;68195;50.854;2.860;2023-12-29T15:12:03;5.57;;;1.13;;
78844;SDS011;68195;50.854;2.860;2023-12-29T15:14:30;4.70;;;1.40;;
78844;SDS011;68195;50.854;2.860;2023-12-29T15:16:55;4.45;;;1.38;;
78844;SDS011;68195;50.854;2.860;2023-12-29T15:19:23;9.57;;;2.13;;
78844;SDS011;68195;50.854;2.860;2023-12-29T15:21:51;9.43;;;1.98;;
78844;SDS011;68195;50.854;2.860;2023-12-29T15:24:21;8.40;;;1.85;;
78844;SDS011;68195;50.854;2.860;2023-12-29T15:26:47;9.00;;;1.70;;
78844;SDS011;68195;50.854;2.860;2023-12-29T15:29:13;8.50;;;1.85;;
78844;SDS011;68195;50.854;2.860;2023-12-29T15:31:41;11.23;;;2.53;;
78844;SDS011;68195;50.854;2.860;2023-12-29T15:34:10;5.78;;;1.92;;
78844;SDS011;68195;50.854;2.860;2023-12-29T15:36:42;8.23;;;2.38;;
78844;SDS011;68195;50.854;2.860;2023-12-29T15:39:08;7.60;;;2.17;;
78844;SDS011;68195;50.854;2.860;2023-12-29T15:41:33;9.40;;;2.03;;
78844;SDS011;68195;50.854;2.860;2023-12-29T15:44:01;9.27;;;2.25;;
78844;SDS011;68195;50.854;2.860;2023-12-29T15:46:28;9.02;;;1.85;;